Time;durP1;ratioP1;P1;durP2;ratioP2;P2;SDS_P1;SDS_P2;PMS_P1;PMS_P2;Temp;Humidity;BMP_temperature;BMP_pressure;BME280_temperature;BME280_humidity;BME280_pressure;Samples;Min_cycle;Max_cycle;Signal;HPM_P1;HPM_P2
2022/05/18 00:01:38;;;;;;;9.98;4.85;;;;;;;8.05;77.55;98628.28;5080225;27;20524;-67
2022/05/18 00:04:04;;;;;;;5.75;3.60;;;;;;;8.09;77.16;98627.09;5080327;27;20501;-68
2022/05/18 00:06:29;;;;;;;7.25;4.03;;;;;;;8.15;76.99;98635.41;5080655;27;20043;-63
2022/05/18 00:08:53;;;;;;;4.13;3.58;;;;;;;8.18;76.71;98634.34;5098656;27;20046;-63
2022/05/18 00:11:20;;;;;;;4.78;3.42;;;;;;;8.18;76.15;98640.50;5079864;27;20051;-64
2022/05/18 00:13:48;;;;;;;5.28;3.83;;;;;;;8.16;76.59;98639.75;5079596;27;20038;-64
2022/05/18 00:16:14;;;;;;;6.03;3.45;;;;;;;8.10;75.98;98640.25;5079234;27;20110;-65
2022/05/18 00:18:39;;;;;;;4.05;3.45;;;;;;;8.05;76.34;98642.41;5097791;27;20042;-64
2022/05/18 00:21:05;;;;;;;4.50;3.28;;;;;;;7.99;76.48;98645.53;5062691;27;20056;-64
2022/05/18 00:23:31;;;;;;;5.30;3.70;;;;;;;7.93;76.66;98643.34;5062548;27;20038;-65
2022/05/18 00:25:56;;;;;;;11.70;4.40;;;;;;;7.88;76.51;98651.66;5098076;27;20039;-65
2022/05/18 00:28:21;;;;;;;8.10;4.60;;;;;;;7.84;76.70;98647.53;5046272;27;20039;-70
2022/05/18 00:30:46;;;;;;;5.82;4.13;;;;;;;7.79;76.86;98648.88;5099073;27;20046;-70
2022/05/18 00:33:11;;;;;;;8.85;4.30;;;;;;;7.76;76.88;98654.41;5103418;27;20043;-71
2022/05/18 00:35:38;;;;;;;5.70;4.18;;;;;;;7.71;77.20;98659.19;5048100;27;20043;-71
2022/05/18 00:38:04;;;;;;;8.60;3.80;;;;;;;7.68;77.47;98659.41;5082829;27;20102;-70
2022/05/18 00:40:31;;;;;;;5.18;3.50;;;;;;;7.68;77.18;98662.91;5113894;27;20039;-72
2022/05/18 00:42:55;;;;;;;5.57;3.00;;;;;;;7.68;77.04;98662.91;5108476;27;20035;-71
2022/05/18 00:45:21;;;;;;;4.28;3.30;;;;;;;7.69;76.51;98661.97;5098082;27;20046;-70
2022/05/18 00:47:45;;;;;;;5.63;3.42;;;;;;;7.73;76.35;98665.25;5098675;27;20051;-71
2022/05/18 00:50:17;;;;;;;3.15;2.85;;;;;;;7.78;76.33;98671.91;5097929;27;20079;-69
2022/05/18 00:52:47;;;;;;;3.42;2.85;;;;;;;7.79;76.32;98675.41;5097949;27;20062;-69
2022/05/18 00:55:16;;;;;;;4.00;2.72;;;;;;;7.78;75.87;98666.59;5097694;27;20035;-71
2022/05/18 00:57:48;;;;;;;3.33;2.97;;;;;;;7.80;75.85;98671.75;5097646;27;20035;-68
2022/05/18 01:00:16;;;;;;;3.45;3.15;;;;;;;7.76;75.61;98678.28;5097872;27;20045;-69
2022/05/18 01:02:46;;;;;;;3.65;3.08;;;;;;;7.75;75.10;98680.09;5078816;27;20158;-69
2022/05/18 01:05:15;;;;;;;3.55;3.05;;;;;;;7.72;75.01;98675.00;5079245;27;20038;-69
2022/05/18 01:07:49;;;;;;;4.30;2.65;;;;;;;7.72;75.44;98679.47;5097723;27;20441;-70
2022/05/18 01:10:14;;;;;;;6.00;2.95;;;;;;;7.68;74.96;98688.59;5097601;27;20520;-71
2022/05/18 01:12:39;;;;;;;3.70;2.50;;;;;;;7.65;75.44;98682.59;5078625;27;20184;-70
2022/05/18 01:15:12;;;;;;;3.20;2.50;;;;;;;7.66;74.91;98686.09;5078381;27;20046;-70
2022/05/18 01:17:40;;;;;;;3.33;2.85;;;;;;;7.63;74.95;98679.19;5097282;27;20132;-68
2022/05/18 01:20:16;;;;;;;3.53;2.67;;;;;;;7.62;74.30;98688.13;5097494;27;20050;-67
2022/05/18 01:23:02;;;;;;;4.53;3.03;;;;;;;7.62;74.09;98697.88;5097477;27;20050;-66
2022/05/18 01:25:49;;;;;;;3.75;3.00;;;;;;;7.60;74.17;98707.75;5097761;27;20039;-65
2022/05/18 01:28:14;;;;;;;6.70;2.85;;;;;;;7.56;74.42;98706.31;5082739;27;20046;-70
2022/05/18 01:30:42;;;;;;;6.15;2.65;;;;;;;7.55;74.39;98716.06;5080549;27;20091;-67
2022/05/18 01:33:08;;;;;;;3.47;2.70;;;;;;;7.54;74.42;98717.03;5082072;27;20043;-73
2022/05/18 01:35:36;;;;;;;4.75;2.65;;;;;;;7.53;74.10;98714.47;5079786;27;20124;-66
2022/05/18 01:38:01;;;;;;;3.00;2.63;;;;;;;7.52;74.32;98718.09;5077630;27;20806;-67
2022/05/18 01:40:36;;;;;;;3.70;2.45;;;;;;;7.54;74.18;98717.03;5078081;27;20415;-65
2022/05/18 01:43:12;;;;;;;3.20;2.47;;;;;;;7.57;73.93;98727.38;5077721;27;20039;-65
2022/05/18 01:45:37;;;;;;;3.03;2.40;;;;;;;7.57;73.68;98721.22;5077274;27;20043;-67
2022/05/18 01:48:10;;;;;;;3.80;2.72;;;;;;;7.68;74.64;98733.69;5060533;27;20043;-67
2022/05/18 01:50:35;;;;;;;3.25;2.55;;;;;;;7.72;74.21;98736.00;5095918;27;20046;-68
2022/05/18 01:53:00;;;;;;;3.38;2.63;;;;;;;7.79;73.95;98731.13;5058576;27;20035;-66
2022/05/18 01:55:25;;;;;;;4.07;2.05;;;;;;;7.89;73.51;98743.59;5060538;27;20046;-72
2022/05/18 01:57:49;;;;;;;2.20;2.00;;;;;;;7.98;73.11;98742.88;5072368;27;20173;-73
2022/05/18 02:00:15;;;;;;;3.53;2.42;;;;;;;8.10;72.60;98738.47;5060751;27;20050;-72
2022/05/18 02:02:40;;;;;;;2.75;2.10;;;;;;;8.22;72.17;98752.63;5091267;27;20402;-71
2022/05/18 02:05:06;;;;;;;4.65;2.58;;;;;;;8.28;71.77;98752.97;5078870;27;20039;-73
2022/05/18 02:07:30;;;;;;;3.25;2.38;;;;;;;8.37;71.48;98751.47;5077934;27;20039;-70
2022/05/18 02:09:55;;;;;;;2.80;2.13;;;;;;;8.50;70.90;98751.38;5095649;27;20049;-68
2022/05/18 02:12:20;;;;;;;5.45;2.53;;;;;;;8.64;71.07;98754.66;5096522;27;20095;-73
2022/05/18 02:14:45;;;;;;;2.90;2.08;;;;;;;8.78;70.25;98761.56;5096728;27;20043;-71
2022/05/18 02:17:09;;;;;;;2.95;2.22;;;;;;;8.90;69.16;98757.94;5095952;27;20058;-70
2022/05/18 02:19:34;;;;;;;2.30;2.08;;;;;;;9.01;68.99;98762.41;5077360;28;20043;-69
2022/05/18 02:22:00;;;;;;;2.75;2.20;;;;;;;9.14;68.81;98765.78;5043294;28;20050;-69
2022/05/18 02:24:25;;;;;;;3.65;2.35;;;;;;;9.22;68.36;98773.16;5077483;28;20049;-71
2022/05/18 02:26:49;;;;;;;3.38;2.60;;;;;;;9.29;68.14;98774.34;5096238;28;20055;-69
2022/05/18 02:29:14;;;;;;;2.75;2.00;;;;;;;9.30;68.00;98770.72;5096550;28;20043;-69
2022/05/18 02:31:39;;;;;;;1.73;1.63;;;;;;;9.28;67.67;98781.47;5060797;28;20045;-74
2022/05/18 02:34:04;;;;;;;2.65;1.63;;;;;;;9.27;67.23;98779.78;5095693;28;20090;-73
2022/05/18 02:36:28;;;;;;;2.85;2.03;;;;;;;9.28;67.10;98788.59;5096032;28;20038;-72
2022/05/18 02:38:53;;;;;;;6.75;2.33;;;;;;;9.33;67.02;98792.59;5078110;28;20043;-73
2022/05/18 02:41:19;;;;;;;3.03;2.40;;;;;;;9.40;67.08;98792.94;5096662;28;20046;-73
2022/05/18 02:43:43;;;;;;;2.97;1.60;;;;;;;9.51;66.92;98800.06;5095823;28;20046;-69
2022/05/18 02:46:10;;;;;;;4.47;1.85;;;;;;;9.61;66.51;98799.19;5076586;28;20046;-67
2022/05/18 02:48:36;;;;;;;3.30;2.38;;;;;;;9.71;65.90;98802.81;5094724;28;20572;-68
2022/05/18 02:51:01;;;;;;;9.95;1.80;;;;;;;9.90;65.42;98806.63;5094601;28;20439;-70
2022/05/18 02:53:26;;;;;;;2.45;2.00;;;;;;;10.09;65.06;98805.00;5059043;28;20057;-65
2022/05/18 02:56:06;;;;;;;2.60;2.38;;;;;;;10.30;64.75;98806.88;5076975;28;20520;-64
2022/05/18 02:58:32;;;;;;;4.53;2.45;;;;;;;10.49;64.58;98810.53;5077033;28;20050;-64
2022/05/18 03:00:57;;;;;;;3.80;1.80;;;;;;;10.63;63.55;98824.50;5077128;28;20047;-65
2022/05/18 03:03:22;;;;;;;1.70;1.40;;;;;;;10.69;63.76;98802.69;5077162;28;20042;-65
2022/05/18 03:05:46;;;;;;;2.50;1.90;;;;;;;10.69;62.92;98808.00;5095208;28;20200;-72
2022/05/18 03:08:11;;;;;;;2.33;2.13;;;;;;;10.67;63.00;98813.47;5076728;28;20551;-69
2022/05/18 03:10:36;;;;;;;2.17;1.98;;;;;;;10.67;63.03;98809.94;5096967;27;20043;-65
2022/05/18 03:13:00;;;;;;;2.58;2.17;;;;;;;10.68;62.49;98811.66;5080629;27;20039;-65
2022/05/18 03:15:25;;;;;;;2.05;1.85;;;;;;;10.68;62.06;98822.31;5080632;27;20054;-64
2022/05/18 03:17:50;;;;;;;2.17;1.65;;;;;;;10.69;62.05;98830.19;5080533;27;20054;-64
2022/05/18 03:25:41;;;;;;;1.40;1.30;;;;;;;10.89;61.19;98831.97;5100695;27;20528;-64
2022/05/18 03:28:06;;;;;;;2.17;1.98;;;;;;;11.00;60.92;98835.53;5085197;27;20561;-66
2022/05/18 03:30:31;;;;;;;4.88;1.80;;;;;;;11.10;60.20;98841.78;5047132;27;20551;-65
2022/05/18 03:32:56;;;;;;;1.40;1.30;;;;;;;11.19;59.88;98836.47;5080931;27;20187;-65
2022/05/18 03:35:20;;;;;;;3.72;2.00;;;;;;;11.27;59.91;98834.03;5098203;27;20043;-65
2022/05/18 03:37:45;;;;;;;2.40;1.77;;;;;;;11.39;59.59;98836.59;5098170;27;20130;-63
2022/05/18 03:40:10;;;;;;;1.55;1.30;;;;;;;11.49;58.82;98842.81;5098347;27;20873;-63
2022/05/18 03:42:36;;;;;;;4.45;2.50;;;;;;;11.58;59.31;98844.66;5099398;27;20042;-64
2022/05/18 03:45:00;;;;;;;2.05;1.90;;;;;;;11.70;58.68;98848.06;5062378;27;20043;-63
2022/05/18 03:47:25;;;;;;;4.10;1.80;;;;;;;11.80;58.34;98851.66;5097888;27;20165;-63
2022/05/18 03:49:50;;;;;;;3.45;1.95;;;;;;;11.88;57.42;98843.78;5098352;27;20049;-63
2022/05/18 03:52:14;;;;;;;3.10;2.15;;;;;;;11.98;57.07;98847.31;5098305;27;20039;-64
2022/05/18 03:54:40;;;;;;;1.98;1.30;;;;;;;12.06;56.82;98854.66;5062740;27;20047;-63
2022/05/18 03:57:07;;;;;;;1.95;1.67;;;;;;;12.12;56.45;98857.63;5098203;27;20092;-64
2022/05/18 03:59:32;;;;;;;5.53;1.70;;;;;;;12.17;56.27;98860.72;5098154;27;20071;-66
2022/05/18 04:01:57;;;;;;;3.05;2.00;;;;;;;12.25;55.49;98860.03;5098061;27;20083;-66
2022/05/18 04:04:22;;;;;;;3.13;1.90;;;;;;;12.36;55.55;98865.25;5097922;27;20047;-67
2022/05/18 04:06:47;;;;;;;2.72;1.63;;;;;;;12.44;55.31;98865.38;5079602;27;20055;-66
2022/05/18 04:09:11;;;;;;;2.63;1.63;;;;;;;12.51;55.22;98871.88;5080085;27;20035;-66
2022/05/18 04:11:36;;;;;;;1.73;1.52;;;;;;;12.63;54.74;98872.56;5098258;27;20043;-67
2022/05/18 04:14:01;;;;;;;2.88;1.42;;;;;;;12.79;54.15;98874.66;5079520;27;20131;-67
2022/05/18 04:16:25;;;;;;;3.53;2.17;;;;;;;12.94;53.73;98875.91;5079225;27;20115;-66
2022/05/18 04:18:50;;;;;;;3.47;2.50;;;;;;;13.07;53.42;98879.97;5078875;27;20050;-67
2022/05/18 04:21:15;;;;;;;3.40;2.13;;;;;;;13.18;53.25;98879.00;5079023;27;20103;-67
2022/05/18 04:23:41;;;;;;;1.95;1.58;;;;;;;13.28;52.62;98877.13;5097616;27;20047;-67
2022/05/18 04:26:07;;;;;;;2.97;2.38;;;;;;;13.44;53.23;98882.72;5097559;27;20069;-66
2022/05/18 04:28:32;;;;;;;4.13;2.67;;;;;;;13.70;51.16;98887.41;5079389;27;20081;-67
2022/05/18 04:30:57;;;;;;;4.05;2.35;;;;;;;13.99;50.94;98887.28;5078968;27;20143;-67
2022/05/18 04:33:23;;;;;;;5.15;2.28;;;;;;;14.28;50.72;98901.34;5098661;27;20158;-68
2022/05/18 04:35:50;;;;;;;5.53;2.08;;;;;;;14.55;49.73;98899.66;5079255;27;20035;-66
2022/05/18 04:38:16;;;;;;;3.58;1.88;;;;;;;14.78;48.71;98898.19;5098028;27;20047;-66
2022/05/18 04:40:41;;;;;;;3.50;2.20;;;;;;;15.12;48.67;98900.97;5078916;27;20055;-67
2022/05/18 04:43:06;;;;;;;2.47;1.77;;;;;;;15.47;47.89;98898.19;5097257;27;20054;-67
2022/05/18 04:45:31;;;;;;;2.67;2.20;;;;;;;15.67;46.69;98898.00;5097258;27;20039;-66
2022/05/18 04:47:56;;;;;;;5.30;2.42;;;;;;;15.86;46.33;98903.13;5097361;27;20489;-66
2022/05/18 04:50:21;;;;;;;3.17;2.30;;;;;;;16.02;46.09;98908.59;5097961;27;20111;-66
2022/05/18 04:52:46;;;;;;;5.88;2.60;;;;;;;16.25;45.41;98915.03;5097582;27;20055;-66
2022/05/18 04:55:11;;;;;;;2.20;1.58;;;;;;;16.53;45.34;98914.78;5078995;27;20043;-66
2022/05/18 04:57:36;;;;;;;3.33;2.30;;;;;;;16.79;45.00;98917.38;5078805;27;20409;-67
2022/05/18 05:00:06;;;;;;;3.53;2.45;;;;;;;17.10;44.17;98914.88;5097083;27;20047;-67
2022/05/18 05:02:34;;;;;;;4.38;2.20;;;;;;;17.40;43.19;98920.41;5097435;27;20493;-66
2022/05/18 05:04:59;;;;;;;7.43;2.63;;;;;;;17.68;42.91;98920.06;5097233;27;20413;-66
2022/05/18 05:07:23;;;;;;;3.35;2.25;;;;;;;17.87;42.92;98925.03;5078523;27;20397;-67
2022/05/18 05:09:48;;;;;;;1.75;1.65;;;;;;;18.04;42.16;98917.75;5097061;27;20091;-67
2022/05/18 05:12:13;;;;;;;3.55;2.33;;;;;;;18.20;41.64;98925.75;5078981;27;20379;-68
2022/05/18 05:14:39;;;;;;;4.22;2.40;;;;;;;18.28;40.68;98928.44;5079179;27;20050;-68
2022/05/18 05:17:05;;;;;;;2.38;2.13;;;;;;;18.33;40.66;98933.28;5081780;27;20123;-71
2022/05/18 05:19:29;;;;;;;3.05;2.38;;;;;;;18.33;39.81;98931.44;5079922;27;20043;-69
2022/05/18 05:21:54;;;;;;;4.78;2.42;;;;;;;18.30;40.22;98936.34;5098146;27;20046;-67
2022/05/18 05:24:19;;;;;;;2.67;1.92;;;;;;;18.26;39.69;98933.16;5102182;27;20047;-69
2022/05/18 05:26:44;;;;;;;2.67;2.15;;;;;;;18.32;39.82;98935.16;5068070;27;20043;-63
2022/05/18 05:29:10;;;;;;;5.38;2.15;;;;;;;18.58;39.47;98940.28;5102811;27;20469;-65
2022/05/18 05:31:36;;;;;;;4.65;2.85;;;;;;;18.89;39.39;98942.94;5105168;27;20383;-64
2022/05/18 05:34:01;;;;;;;3.00;2.20;;;;;;;19.24;38.90;98941.50;5096337;27;20070;-64
2022/05/18 05:36:26;;;;;;;3.33;2.22;;;;;;;19.44;38.66;98945.34;5061284;27;20126;-64
2022/05/18 05:38:51;;;;;;;3.40;2.38;;;;;;;19.61;37.27;98934.44;5096897;27;20081;-64
2022/05/18 05:41:16;;;;;;;4.63;3.13;;;;;;;19.82;36.70;98934.53;5096293;27;20066;-64
2022/05/18 05:43:41;;;;;;;2.58;2.10;;;;;;;20.18;35.70;98935.47;5097134;27;20533;-64
2022/05/18 05:46:10;;;;;;;2.50;2.30;;;;;;;20.71;35.59;98936.16;5096512;27;20478;-64
2022/05/18 05:48:35;;;;;;;6.65;2.83;;;;;;;21.36;34.86;98941.41;5061732;27;20478;-64
2022/05/18 05:51:01;;;;;;;4.38;2.60;;;;;;;21.80;33.56;98947.56;5077261;27;20036;-63
2022/05/18 05:53:27;;;;;;;3.38;2.30;;;;;;;22.32;32.75;98938.94;5096160;27;20058;-64
2022/05/18 05:55:53;;;;;;;5.20;2.70;;;;;;;22.92;32.19;98950.88;5100021;27;20189;-63
2022/05/18 05:58:19;;;;;;;5.00;2.35;;;;;;;23.44;31.88;98945.53;5099621;27;20047;-65
2022/05/18 06:00:44;;;;;;;4.85;1.80;;;;;;;23.82;30.64;98940.28;5097594;27;20046;-65
2022/05/18 06:03:08;;;;;;;5.18;2.50;;;;;;;24.25;30.12;98937.09;5079117;27;20042;-65
2022/05/18 06:05:33;;;;;;;7.85;2.20;;;;;;;24.80;29.47;98946.50;5097950;27;20064;-68
2022/05/18 06:07:58;;;;;;;3.95;2.50;;;;;;;25.46;27.98;98951.53;5081582;28;20026;-68
2022/05/18 06:10:23;;;;;;;3.47;2.72;;;;;;;25.97;26.87;98945.84;5096776;27;20045;-68
2022/05/18 06:12:47;;;;;;;2.40;2.20;;;;;;;26.53;26.25;98953.03;5115981;27;20854;-68
2022/05/18 06:15:13;;;;;;;3.42;2.10;;;;;;;27.27;25.51;98959.22;5112093;28;20074;-68
2022/05/18 06:17:39;;;;;;;3.30;2.03;;;;;;;27.85;24.79;98947.56;5094624;27;20074;-71
2022/05/18 06:20:04;;;;;;;3.03;2.45;;;;;;;28.33;23.92;98959.09;5112337;27;20075;-66
2022/05/18 06:22:29;;;;;;;2.72;2.45;;;;;;;28.77;23.44;98962.22;5111406;28;20042;-67
2022/05/18 06:24:54;;;;;;;3.90;2.25;;;;;;;28.88;22.44;98947.66;5061740;28;20167;-66
2022/05/18 06:27:20;;;;;;;2.03;1.92;;;;;;;28.79;22.21;98968.31;5096917;28;20151;-68
2022/05/18 06:29:44;;;;;;;2.35;2.15;;;;;;;28.81;22.09;98958.75;5080035;28;20035;-68
2022/05/18 06:32:09;;;;;;;3.30;1.80;;;;;;;29.14;21.97;98966.25;5082715;28;20053;-67
2022/05/18 06:34:35;;;;;;;2.22;1.98;;;;;;;29.45;20.45;98970.44;5097639;28;20043;-67
2022/05/18 06:36:59;;;;;;;3.20;2.53;;;;;;;29.54;20.87;98962.63;5078061;28;20481;-68
2022/05/18 06:39:24;;;;;;;2.55;1.95;;;;;;;28.65;21.40;98975.97;5078857;28;20501;-67
2022/05/18 06:41:50;;;;;;;4.93;2.35;;;;;;;27.65;22.51;98970.63;5048974;28;20070;-67
2022/05/18 06:44:15;;;;;;;2.30;1.77;;;;;;;27.45;22.60;98984.59;5085062;27;20099;-70
2022/05/18 06:46:40;;;;;;;4.25;2.42;;;;;;;26.99;22.55;98976.22;5106141;27;20137;-67
2022/05/18 06:49:07;;;;;;;3.58;2.05;;;;;;;27.11;22.57;98983.44;5100098;27;20114;-69
2022/05/18 06:51:35;;;;;;;2.20;2.00;;;;;;;27.71;22.19;98986.13;5099929;27;20072;-67
2022/05/18 06:54:00;;;;;;;2.10;1.88;;;;;;;27.73;21.80;98989.47;5100307;27;20104;-68
2022/05/18 06:56:32;;;;;;;2.25;2.00;;;;;;;28.02;22.17;98993.16;5082063;27;20138;-69
2022/05/18 06:58:57;;;;;;;2.60;2.25;;;;;;;28.15;21.49;98997.56;5101057;27;20462;-66
2022/05/18 07:01:24;;;;;;;2.13;1.92;;;;;;;28.65;20.81;98986.94;5064731;27;20505;-68
2022/05/18 07:03:49;;;;;;;3.42;2.03;;;;;;;29.08;20.43;98982.88;5099511;27;20111;-67
2022/05/18 07:06:17;;;;;;;3.03;2.50;;;;;;;29.93;19.79;98983.59;5099543;27;20051;-68
2022/05/18 07:08:41;;;;;;;4.93;2.47;;;;;;;30.78;19.08;98989.78;5102525;27;20417;-67
2022/05/18 07:11:07;;;;;;;4.85;2.08;;;;;;;31.72;17.86;98987.53;5067335;27;20424;-69
2022/05/18 07:13:32;;;;;;;4.22;2.35;;;;;;;31.86;17.81;99001.69;5070368;27;20039;-68
2022/05/18 07:15:58;;;;;;;4.85;2.53;;;;;;;32.21;16.66;99002.00;5106645;27;20043;-67
2022/05/18 07:18:29;;;;;;;3.17;2.50;;;;;;;33.02;16.15;99007.13;5086340;27;20051;-67
2022/05/18 07:20:54;;;;;;;4.55;2.55;;;;;;;33.64;15.48;98995.13;5084864;27;20050;-67
2022/05/18 07:23:18;;;;;;;3.17;2.50;;;;;;;34.29;15.72;98999.03;5083514;27;20035;-66
2022/05/18 07:25:43;;;;;;;3.17;2.60;;;;;;;34.16;15.16;98992.94;5066652;27;20130;-66
2022/05/18 07:28:09;;;;;;;2.60;2.40;;;;;;;33.98;15.17;98989.91;5104172;27;20122;-68
2022/05/18 07:30:34;;;;;;;3.72;3.08;;;;;;;34.07;15.30;98980.78;5100796;27;20126;-67
2022/05/18 07:32:59;;;;;;;3.00;2.70;;;;;;;34.10;14.94;98998.72;5065698;27;20120;-66
2022/05/18 07:35:24;;;;;;;3.80;2.50;;;;;;;34.54;15.06;98988.69;5084104;27;20158;-66
2022/05/18 07:37:49;;;;;;;3.85;2.92;;;;;;;35.12;14.40;98999.28;5084195;27;20049;-65
2022/05/18 07:40:13;;;;;;;2.72;2.53;;;;;;;35.54;13.69;98988.53;5103809;27;20447;-67
2022/05/18 07:42:38;;;;;;;2.35;2.25;;;;;;;36.09;14.02;99002.25;5082332;27;20077;-69
2022/05/18 07:45:03;;;;;;;5.20;2.92;;;;;;;37.00;13.30;98991.00;5080749;27;20042;-66
2022/05/18 07:47:32;;;;;;;3.53;3.22;;;;;;;37.88;12.29;98999.75;5079941;27;20121;-66
2022/05/18 07:49:57;;;;;;;2.80;2.65;;;;;;;37.70;12.29;98999.47;5098354;27;20509;-66
2022/05/18 07:52:22;;;;;;;3.20;3.00;;;;;;;37.25;12.75;99006.50;5098217;27;20051;-67
2022/05/18 07:54:47;;;;;;;3.90;3.60;;;;;;;36.81;13.04;98995.69;5079839;27;20051;-67
2022/05/18 07:57:12;;;;;;;4.00;3.65;;;;;;;37.34;13.28;99003.91;5097612;27;20047;-67
2022/05/18 07:59:38;;;;;;;4.85;3.22;;;;;;;37.38;12.49;98999.38;5098499;27;20043;-67
2022/05/18 08:02:03;;;;;;;8.50;3.40;;;;;;;37.43;12.11;99019.63;5098192;27;20043;-72
2022/05/18 08:04:27;;;;;;;7.60;3.42;;;;;;;37.41;11.72;99005.19;5098047;27;20390;-67
2022/05/18 08:06:52;;;;;;;4.93;3.40;;;;;;;37.69;12.29;99014.53;5098371;27;20405;-68
2022/05/18 08:09:19;;;;;;;3.63;3.33;;;;;;;38.56;11.70;99005.53;5098225;27;20458;-66
2022/05/18 08:17:10;;;;;;;4.22;3.92;;;;;;;40.38;10.78;99006.09;5097723;27;20130;-69
2022/05/18 08:19:35;;;;;;;6.32;3.72;;;;;;;40.73;10.47;99014.66;5097662;27;20126;-69
2022/05/18 08:22:00;;;;;;;4.20;3.80;;;;;;;39.51;10.82;99007.41;5080005;27;20444;-70
2022/05/18 08:24:24;;;;;;;3.92;3.63;;;;;;;37.87;11.65;99015.63;5098168;27;20523;-70
2022/05/18 08:26:49;;;;;;;4.15;3.85;;;;;;;36.37;12.11;99013.38;5062652;27;20090;-70
2022/05/18 08:29:14;;;;;;;4.90;3.80;;;;;;;36.13;12.35;99026.34;5098102;27;20074;-70
2022/05/18 08:31:39;;;;;;;4.15;3.60;;;;;;;36.78;12.21;99029.63;5097502;27;20043;-70
2022/05/18 08:34:04;;;;;;;5.80;3.50;;;;;;;37.61;11.69;99014.34;5078931;27;20073;-69
2022/05/18 08:36:31;;;;;;;3.70;3.40;;;;;;;38.06;11.52;99029.47;5078945;27;20074;-68
2022/05/18 08:38:56;;;;;;;7.70;3.72;;;;;;;38.72;11.26;99025.53;5097310;27;20134;-68
2022/05/18 08:41:25;;;;;;;3.78;3.58;;;;;;;39.72;11.03;99029.25;5092088;27;20070;-69
2022/05/18 08:43:54;;;;;;;4.15;3.78;;;;;;;40.53;10.42;99027.19;5115427;27;20084;-68
2022/05/18 08:46:43;;;;;;;5.22;4.80;;;;;;;41.83;10.84;99020.81;5107642;27;20409;-68
2022/05/18 08:49:27;;;;;;;6.32;5.53;;;;;;;42.16;9.73;99023.09;5067633;27;20078;-68
2022/05/18 08:52:03;;;;;;;7.18;4.57;;;;;;;41.33;10.16;99037.22;5079649;27;20046;-67
2022/05/18 08:55:09;;;;;;;6.28;4.80;;;;;;;41.18;11.00;99032.91;5079173;27;20054;-67
2022/05/18 08:57:39;;;;;;;5.03;4.72;;;;;;;41.31;9.65;99023.53;5097061;27;20066;-67
2022/05/18 09:00:15;;;;;;;5.15;4.75;;;;;;;41.94;10.21;99024.91;5079158;27;20047;-68
2022/05/18 09:02:42;;;;;;;6.32;5.72;;;;;;;42.28;9.67;99012.03;5078446;27;20034;-66
2022/05/18 09:05:17;;;;;;;5.75;5.25;;;;;;;42.60;9.85;99031.06;5078340;27;20552;-68
2022/05/18 09:07:47;;;;;;;18.77;6.30;;;;;;;42.76;9.04;99025.72;5096715;27;20045;-69
2022/05/18 09:10:35;;;;;;;5.40;5.05;;;;;;;43.69;9.30;99016.25;5078506;27;20489;-67
2022/05/18 09:13:00;;;;;;;6.55;6.05;;;;;;;43.45;8.83;99016.94;5078700;27;20050;-66
2022/05/18 09:15:38;;;;;;;6.57;5.95;;;;;;;44.20;8.64;99022.59;5061231;27;20501;-68
2022/05/18 09:18:20;;;;;;;5.65;5.20;;;;;;;44.47;8.84;99019.97;5096411;27;20055;-68
2022/05/18 09:21:34;;;;;;;6.18;5.75;;;;;;;44.98;9.02;99033.75;5078633;27;20047;-68
2022/05/18 09:24:40;;;;;;;6.72;6.13;;;;;;;45.42;8.21;99029.97;4997189;28;20059;-68
2022/05/18 09:27:50;;;;;;;7.70;7.10;;;;;;;45.57;8.19;99025.63;4996912;28;20486;-67
2022/05/18 09:30:39;;;;;;;7.18;6.57;;;;;;;45.12;8.18;99029.44;5013840;28;20045;-67
2022/05/18 09:33:23;;;;;;;7.50;6.80;;;;;;;45.55;8.53;99023.16;4997388;28;20048;-68
2022/05/18 09:36:03;;;;;;;8.18;7.68;;;;;;;45.26;7.47;99023.47;5013980;28;20099;-69
2022/05/18 09:38:36;;;;;;;8.07;7.57;;;;;;;45.21;7.47;99030.13;5013615;28;20060;-68
2022/05/18 09:41:05;;;;;;;7.60;7.00;;;;;;;44.34;8.06;99018.31;5014013;28;20450;-69
2022/05/18 09:43:39;;;;;;;8.10;6.20;;;;;;;44.34;8.34;99014.66;4996772;28;20419;-67
2022/05/18 09:46:08;;;;;;;7.30;6.70;;;;;;;43.54;8.03;99019.69;5013244;28;20048;-64
2022/05/18 09:48:40;;;;;;;7.15;6.65;;;;;;;42.52;8.19;99017.09;5015311;28;20068;-66
2022/05/18 09:51:08;;;;;;;6.88;5.68;;;;;;;40.59;9.14;99015.56;5013392;28;20051;-65
2022/05/18 09:53:33;;;;;;;5.65;5.15;;;;;;;40.01;9.86;99001.75;4996375;28;20052;-65
2022/05/18 09:55:57;;;;;;;6.20;5.10;;;;;;;38.46;10.95;99000.94;4996280;28;20041;-64
2022/05/18 09:58:29;;;;;;;8.68;4.40;;;;;;;36.58;11.99;99005.66;4996648;28;20045;-65
2022/05/18 10:07:27;;;;;;;8.77;4.05;;;;;;;34.88;13.17;98996.34;5057729;27;20387;-65
2022/05/18 10:09:44;;;;;;;;;;;;;;;33.16;14.97;98991.72;5077926;27;20039;-63
2022/05/18 10:12:26;;;;;;;5.20;3.45;;;;;;;35.38;13.47;98995.28;5096345;27;19915;-64
2022/05/18 10:14:58;;;;;;;3.75;3.40;;;;;;;37.15;12.21;99011.34;5077523;27;20520;-65
2022/05/18 10:17:31;;;;;;;5.15;4.03;;;;;;;36.73;12.01;99007.47;5061987;27;20059;-64
2022/05/18 10:20:06;;;;;;;7.55;3.50;;;;;;;35.60;12.75;98998.47;5080120;27;20443;-64
2022/05/18 10:22:38;;;;;;;3.95;3.65;;;;;;;35.56;12.52;98999.31;5096153;27;20092;-63
2022/05/18 10:25:21;;;;;;;3.20;2.97;;;;;;;35.18;13.06;98999.00;5096562;28;20054;-65
2022/05/18 10:27:47;;;;;;;4.00;3.70;;;;;;;33.25;14.23;98987.34;5099375;28;20054;-63
2022/05/18 10:30:28;;;;;;;8.68;4.22;;;;;;;31.79;16.09;98999.19;5078159;28;20091;-66
2022/05/18 10:33:13;;;;;;;5.40;3.20;;;;;;;30.27;17.02;98967.06;5096736;28;20125;-63
2022/05/18 10:35:52;;;;;;;3.25;2.92;;;;;;;29.04;17.49;98976.22;5070790;28;20488;-64
2022/05/18 10:38:20;;;;;;;5.13;3.42;;;;;;;27.55;18.68;98984.06;5080311;28;20085;-63
2022/05/18 10:40:45;;;;;;;6.68;3.45;;;;;;;26.59;19.68;98986.84;5096792;28;20493;-64
2022/05/18 10:43:22;;;;;;;5.70;3.42;;;;;;;26.00;20.35;98975.44;5076883;28;20497;-66
2022/05/18 10:45:55;;;;;;;3.03;2.72;;;;;;;25.50;20.90;98974.63;5078927;28;20616;-63
2022/05/18 10:48:23;;;;;;;4.35;2.85;;;;;;;24.84;21.12;98971.41;5097251;28;20568;-63
2022/05/18 10:50:48;;;;;;;6.55;2.70;;;;;;;24.53;21.30;98986.66;5098001;28;20458;-66
2022/05/18 10:53:13;;;;;;;5.22;2.75;;;;;;;24.27;22.07;98985.91;5099016;28;20126;-65
2022/05/18 10:55:55;;;;;;;5.03;2.90;;;;;;;24.26;22.31;98984.25;5103264;28;20077;-64
2022/05/18 10:58:25;;;;;;;2.28;2.10;;;;;;;23.75;22.63;98977.56;5103536;28;20047;-66
2022/05/18 11:01:19;;;;;;;5.72;2.25;;;;;;;23.43;22.86;98984.66;5100797;28;20047;-64
2022/05/18 11:04:01;;;;;;;2.20;1.60;;;;;;;23.34;23.36;98985.06;5098192;28;20046;-64
2022/05/18 11:06:38;;;;;;;7.70;2.47;;;;;;;23.21;23.33;98977.72;5097940;28;20837;-65
2022/05/18 11:09:25;;;;;;;3.88;2.40;;;;;;;23.01;23.25;98985.00;5096562;28;20039;-66
2022/05/18 11:12:21;;;;;;;2.40;1.85;;;;;;;22.85;23.66;98996.25;5096210;28;20050;-64
2022/05/18 11:15:01;;;;;;;4.38;2.35;;;;;;;22.46;23.39;98979.53;5078576;28;20505;-63
2022/05/18 11:17:28;;;;;;;2.65;2.20;;;;;;;21.70;24.74;98981.31;5099553;28;20058;-62
2022/05/18 11:19:52;;;;;;;3.55;2.38;;;;;;;21.42;25.64;98979.63;5078519;28;20569;-63
2022/05/18 11:22:29;;;;;;;3.28;2.22;;;;;;;21.38;26.33;98990.03;5077529;28;20039;-63
2022/05/18 11:25:00;;;;;;;5.53;2.58;;;;;;;21.50;25.64;98987.63;5077908;28;20058;-63
2022/05/18 11:27:39;;;;;;;2.10;1.95;;;;;;;21.47;25.57;98985.28;5095406;28;20041;-63
2022/05/18 11:30:22;;;;;;;3.40;1.98;;;;;;;21.20;25.31;98985.06;5076539;28;20080;-64
2022/05/18 11:33:03;;;;;;;4.40;3.17;;;;;;;21.14;25.47;98990.38;5098970;27;20039;-68
2022/05/18 11:36:00;;;;;;;3.97;2.05;;;;;;;20.98;26.08;98989.59;5081172;27;20038;-65
2022/05/18 11:38:38;;;;;;;3.88;2.40;;;;;;;20.75;26.16;98991.63;5080794;27;20122;-65
2022/05/18 11:41:09;;;;;;;5.05;2.10;;;;;;;20.67;26.71;98984.44;5099020;27;20458;-66
2022/05/18 11:43:49;;;;;;;4.68;2.40;;;;;;;20.85;27.12;98988.63;5080609;27;20043;-63
2022/05/18 11:46:29;;;;;;;8.50;2.50;;;;;;;20.91;26.82;98988.66;5080167;27;20089;-64
2022/05/18 11:49:17;;;;;;;5.25;2.33;;;;;;;20.93;26.95;98983.91;5098502;27;20123;-62
2022/05/18 11:52:00;;;;;;;5.13;2.17;;;;;;;20.87;26.75;98994.69;5080374;27;20497;-64
2022/05/18 11:54:55;;;;;;;3.88;2.90;;;;;;;20.75;26.71;98993.50;5098503;27;20125;-70
2022/05/18 11:57:38;;;;;;;3.60;2.45;;;;;;;20.73;26.12;98998.25;5092837;27;20047;-66
2022/05/18 12:00:09;;;;;;;6.78;2.10;;;;;;;20.48;26.93;98990.44;5115766;27;20111;-64
2022/05/18 12:03:00;;;;;;;3.15;2.35;;;;;;;20.63;27.06;98987.72;5079444;27;20477;-65